createdAt,value
2023-05-27T00:00:41.237Z,4.15
2023-05-27T00:05:45.440Z,4.00
2023-05-27T00:10:49.543Z,4.20
2023-05-27T00:15:52.608Z,3.83
2023-05-27T00:20:56.766Z,3.55
2023-05-27T00:25:59.491Z,3.95
2023-05-27T00:31:02.629Z,3.72
2023-05-27T00:36:07.331Z,3.72
2023-05-27T00:41:13.336Z,4.50
2023-05-27T00:46:16.311Z,4.05
2023-05-27T00:51:20.433Z,4.65
2023-05-27T00:56:23.176Z,3.88
2023-05-27T01:01:27.048Z,4.23
2023-05-27T01:06:44.667Z,4.03
2023-05-27T01:11:53.285Z,3.80
2023-05-27T01:16:58.957Z,3.97
2023-05-27T01:22:03.826Z,4.37
2023-05-27T01:27:09.391Z,4.43
2023-05-27T01:32:16.889Z,4.53
2023-05-27T01:37:23.721Z,4.43
2023-05-27T01:42:28.236Z,4.80
2023-05-27T01:47:31.247Z,3.80
2023-05-27T01:52:34.067Z,4.20
2023-05-27T01:57:38.103Z,4.10
2023-05-27T02:02:41.311Z,3.87
2023-05-27T02:07:44.125Z,4.20
2023-05-27T02:12:48.852Z,4.47
2023-05-27T02:17:56.135Z,4.33
2023-05-27T02:22:58.915Z,3.70
2023-05-27T02:28:03.989Z,4.03
2023-05-27T02:33:06.865Z,5.10
2023-05-27T02:38:09.701Z,4.60
2023-05-27T02:43:13.837Z,4.00
2023-05-27T02:48:16.570Z,4.17
2023-05-27T02:53:19.342Z,4.37
2023-05-27T02:58:23.623Z,4.50
2023-05-27T03:03:26.455Z,4.57
2023-05-27T03:08:29.229Z,4.50
2023-05-27T03:13:33.331Z,4.67
2023-05-27T03:18:36.053Z,5.20
2023-05-27T03:23:38.930Z,4.93
2023-05-27T03:28:43.013Z,4.90
2023-05-27T03:33:45.796Z,4.53
2023-05-27T03:38:48.710Z,4.40
2023-05-27T03:43:52.734Z,4.80
2023-05-27T03:48:55.760Z,4.57
2023-05-27T03:53:58.441Z,5.00
2023-05-27T03:59:02.906Z,4.83
2023-05-27T04:04:06.235Z,4.57
2023-05-27T04:09:09.033Z,4.63
2023-05-27T04:14:13.172Z,5.10
2023-05-27T04:19:15.975Z,5.10
2023-05-27T04:24:18.700Z,5.00
2023-05-27T04:29:26.077Z,4.67
2023-05-27T04:34:28.829Z,6.03
2023-05-27T04:39:31.882Z,4.63
2023-05-27T04:44:36.256Z,5.03
2023-05-27T04:49:39.064Z,4.90
2023-05-27T04:54:41.847Z,4.40
2023-05-27T05:00:00.346Z,5.13
2023-05-27T05:05:03.965Z,5.10
2023-05-27T05:10:08.242Z,5.10
2023-05-27T05:15:12.423Z,5.32
2023-05-27T05:20:15.220Z,5.28
2023-05-27T05:25:17.968Z,5.30
2023-05-27T05:30:21.983Z,5.13
2023-05-27T05:35:24.696Z,4.93
2023-05-27T05:40:27.513Z,4.78
2023-05-27T05:45:32.372Z,4.80
2023-05-27T05:50:35.058Z,5.10
2023-05-27T05:55:38.252Z,4.68
2023-05-27T06:00:42.337Z,5.35
2023-05-27T06:05:45.076Z,4.55
2023-05-27T06:10:47.949Z,3.70
2023-05-27T06:15:52.253Z,3.95
2023-05-27T06:20:55.002Z,4.00
2023-05-27T06:25:57.715Z,4.13
2023-05-27T06:31:01.852Z,4.15
2023-05-27T06:36:04.814Z,4.40
2023-05-27T06:41:07.715Z,4.13
2023-05-27T06:46:11.790Z,3.85
2023-05-27T06:51:38.564Z,3.25
2023-05-27T06:56:41.497Z,3.42
2023-05-27T07:01:45.841Z,3.05
2023-05-27T07:06:48.678Z,3.83
2023-05-27T07:11:51.679Z,3.72
2023-05-27T07:16:56.763Z,3.58
2023-05-27T07:21:59.572Z,3.53
2023-05-27T07:27:02.523Z,3.33
2023-05-27T07:32:07.021Z,3.28
2023-05-27T07:37:09.737Z,2.67
2023-05-27T07:42:12.547Z,2.72
2023-05-27T07:47:16.573Z,3.53
2023-05-27T07:52:19.473Z,3.53
2023-05-27T07:57:22.266Z,2.83
2023-05-27T08:02:26.506Z,2.88
2023-05-27T08:07:29.324Z,3.00
2023-05-27T08:12:32.080Z,3.15
2023-05-27T08:17:36.235Z,3.47
2023-05-27T08:22:39.318Z,2.80
2023-05-27T08:27:46.624Z,3.22
2023-05-27T08:32:52.575Z,2.90
2023-05-27T08:37:55.606Z,3.22
2023-05-27T08:42:58.432Z,3.15
2023-05-27T08:48:03.187Z,3.40
2023-05-27T08:53:06.213Z,2.80
2023-05-27T08:58:09.717Z,3.13
2023-05-27T09:03:14.319Z,3.00
2023-05-27T09:08:20.225Z,2.65
2023-05-27T09:13:29.697Z,2.88
2023-05-27T09:18:35.250Z,2.70
2023-05-27T09:23:39.778Z,2.65
2023-05-27T09:28:42.560Z,3.22
2023-05-27T09:33:46.645Z,2.80
2023-05-27T09:38:49.672Z,2.55
2023-05-27T09:43:56.130Z,2.63
2023-05-27T09:49:00.751Z,2.67
2023-05-27T09:54:03.719Z,2.50
2023-05-27T09:59:08.302Z,2.78
2023-05-27T10:04:14.074Z,3.20
2023-05-27T10:09:18.143Z,3.30
2023-05-27T10:14:21.078Z,2.88
2023-05-27T10:19:25.133Z,3.25
2023-05-27T10:24:34.790Z,3.03
2023-05-27T10:29:39.017Z,2.95
2023-05-27T10:34:47.796Z,3.20
2023-05-27T10:39:57.577Z,2.60
2023-05-27T10:45:08.440Z,2.95
2023-05-27T10:50:16.061Z,3.00
2023-05-27T10:55:22.093Z,2.70
2023-05-27T11:00:29.078Z,2.78
2023-05-27T11:05:33.359Z,3.03
2023-05-27T11:10:36.412Z,2.40
2023-05-27T11:15:42.931Z,2.95
2023-05-27T11:20:49.448Z,2.65
2023-05-27T11:25:52.670Z,2.67
2023-05-27T11:31:00.388Z,2.58
2023-05-27T11:36:09.302Z,2.58
2023-05-27T11:41:12.042Z,2.72
2023-05-27T11:46:14.842Z,3.05
2023-05-27T11:51:19.020Z,2.85
2023-05-27T11:56:22.683Z,2.90
2023-05-27T12:01:26.296Z,2.80
2023-05-27T12:06:30.418Z,2.45
2023-05-27T12:11:33.431Z,2.60
2023-05-27T12:16:36.191Z,2.40
2023-05-27T12:21:40.691Z,2.55
2023-05-27T12:26:43.416Z,2.15
2023-05-27T12:31:46.541Z,2.78
2023-05-27T12:36:50.617Z,2.35
2023-05-27T12:41:54.116Z,2.08
2023-05-27T12:46:56.812Z,2.63
2023-05-27T12:52:01.142Z,2.30
2023-05-27T12:57:06.033Z,2.50
2023-05-27T13:02:08.751Z,2.40
2023-05-27T13:07:13.330Z,2.72
2023-05-27T13:12:16.036Z,2.25
2023-05-27T13:17:19.239Z,2.50
2023-05-27T13:22:23.635Z,2.78
2023-05-27T13:27:26.701Z,2.50
2023-05-27T13:32:29.456Z,3.10
2023-05-27T13:37:33.518Z,2.40
2023-05-27T13:42:36.319Z,2.50
2023-05-27T13:47:41.879Z,2.55
2023-05-27T13:52:47.000Z,2.47
2023-05-27T13:57:49.765Z,2.63
2023-05-27T14:02:52.699Z,2.78
2023-05-27T14:07:59.629Z,3.00
2023-05-27T14:13:04.519Z,2.65
2023-05-27T14:18:07.466Z,2.45
2023-05-27T14:23:13.719Z,2.70
2023-05-27T14:28:16.469Z,2.30
2023-05-27T14:33:19.302Z,2.42
2023-05-27T14:38:23.569Z,2.80
2023-05-27T14:43:26.351Z,2.60
2023-05-27T14:48:30.210Z,3.13
2023-05-27T14:53:34.254Z,2.40
2023-05-27T14:58:37.005Z,2.92
2023-05-27T15:03:39.871Z,2.88
2023-05-27T15:08:43.965Z,2.70
2023-05-27T15:13:46.700Z,2.65
2023-05-27T15:18:49.548Z,3.30
2023-05-27T15:23:56.106Z,3.28
2023-05-27T15:28:58.803Z,2.97
2023-05-27T15:34:01.588Z,3.00
2023-05-27T15:39:07.125Z,3.10
2023-05-27T15:44:09.826Z,7.05
2023-05-27T15:49:15.851Z,4.78
2023-05-27T15:54:19.904Z,3.10
2023-05-27T15:59:22.781Z,2.85
2023-05-27T16:04:25.580Z,2.85
2023-05-27T16:09:29.636Z,3.30
2023-05-27T16:14:32.374Z,3.00
2023-05-27T16:19:35.284Z,3.17
2023-05-27T16:24:39.383Z,3.13
2023-05-27T16:29:42.319Z,3.05
2023-05-27T16:34:45.083Z,3.15
2023-05-27T16:39:49.174Z,2.92
2023-05-27T16:44:52.046Z,2.97
2023-05-27T16:49:54.780Z,3.50
2023-05-27T16:55:00.152Z,3.70
2023-05-27T17:00:03.882Z,4.18
2023-05-27T17:05:07.401Z,2.80
2023-05-27T17:10:12.706Z,3.22
2023-05-27T17:15:16.065Z,5.63
2023-05-27T17:20:20.022Z,6.45
2023-05-27T17:25:24.295Z,5.70
2023-05-27T17:30:27.204Z,7.32
2023-05-27T17:35:29.944Z,7.63
2023-05-27T17:40:33.997Z,5.57
2023-05-27T17:45:37.482Z,5.72
2023-05-27T17:50:40.328Z,3.97
2023-05-27T17:55:44.572Z,5.47
2023-05-27T18:00:48.863Z,5.80
2023-05-27T18:05:51.901Z,5.07
2023-05-27T18:10:55.980Z,4.80
2023-05-27T18:15:58.752Z,4.93
2023-05-27T18:21:01.519Z,4.25
2023-05-27T18:26:05.681Z,4.90
2023-05-27T18:31:08.458Z,5.20
2023-05-27T18:36:11.632Z,5.05
2023-05-27T18:41:15.717Z,5.72
2023-05-27T18:46:18.893Z,7.03
2023-05-27T18:51:22.699Z,7.13
2023-05-27T18:56:27.752Z,6.20
2023-05-27T19:01:31.505Z,5.40
2023-05-27T19:06:34.672Z,5.00
2023-05-27T19:11:39.068Z,5.18
2023-05-27T19:16:41.850Z,5.43
2023-05-27T19:21:44.618Z,6.60
2023-05-27T19:26:48.735Z,6.05
2023-05-27T19:31:51.492Z,5.72
2023-05-27T19:36:54.264Z,6.22
2023-05-27T19:41:58.274Z,5.95
2023-05-27T19:47:01.912Z,7.38
2023-05-27T19:52:06.098Z,6.85
2023-05-27T19:57:10.712Z,7.00
2023-05-27T20:02:13.652Z,6.97
2023-05-27T20:07:16.384Z,6.97
2023-05-27T20:12:37.522Z,7.07
2023-05-27T20:17:40.987Z,7.30
2023-05-27T20:22:43.801Z,6.15
2023-05-27T20:27:47.886Z,6.18
2023-05-27T20:32:50.876Z,6.43
2023-05-27T20:37:53.601Z,6.90
2023-05-27T20:42:57.672Z,11.15
2023-05-27T20:48:00.449Z,11.20
2023-05-27T20:53:07.327Z,5.65
2023-05-27T20:58:11.477Z,5.05
2023-05-27T21:03:14.389Z,8.15
2023-05-27T21:08:17.526Z,8.10
2023-05-27T21:13:21.558Z,6.88
2023-05-27T21:18:24.295Z,9.35
2023-05-27T21:23:27.053Z,7.07
2023-05-27T21:28:31.524Z,8.52
2023-05-27T21:33:34.293Z,7.40
2023-05-27T21:38:37.107Z,9.77
2023-05-27T21:43:41.233Z,9.60
2023-05-27T21:48:44.472Z,8.63
2023-05-27T21:53:47.622Z,10.20
2023-05-27T21:58:51.675Z,9.70
2023-05-27T22:03:54.473Z,8.38
2023-05-27T22:08:57.274Z,9.70
2023-05-27T22:14:01.517Z,9.18
2023-05-27T22:19:04.248Z,8.45
2023-05-27T22:24:07.230Z,10.10
2023-05-27T22:29:11.303Z,8.35
2023-05-27T22:34:14.028Z,8.13
2023-05-27T22:39:16.890Z,9.07
2023-05-27T22:44:21.718Z,9.48
2023-05-27T22:49:24.533Z,10.35
2023-05-27T22:54:27.237Z,8.57
2023-05-27T22:59:31.280Z,8.93
2023-05-27T23:04:34.036Z,9.05
2023-05-27T23:09:36.720Z,8.73
2023-05-27T23:14:40.747Z,8.23
2023-05-27T23:25:17.653Z,7.85
2023-05-27T23:30:48.482Z,8.80
2023-05-27T23:35:59.017Z,8.35
2023-05-27T23:46:46.764Z,8.75
2023-05-27T23:52:06.212Z,8.93
2023-05-27T23:57:13.807Z,8.90
